sensor_id;sensor_type;location;lat;lon;timestamp;pressure;altitude;pressure_sealevel;temperature;humidity
28267;BME280;15525;45.568;5.448;2023-01-31T00:03:34;99102.66;;;6.88;61.69
28267;BME280;15525;45.568;5.448;2023-01-31T00:06:15;99097.28;;;6.52;63.50
28267;BME280;15525;45.568;5.448;2023-01-31T00:08:41;99108.44;;;6.36;63.91
28267;BME280;15525;45.568;5.448;2023-01-31T00:11:07;99104.22;;;6.53;63.73
28267;BME280;15525;45.568;5.448;2023-01-31T00:13:33;99101.13;;;6.98;62.37
28267;BME280;15525;45.568;5.448;2023-01-31T00:15:59;99101.81;;;6.94;62.55
28267;BME280;15525;45.568;5.448;2023-01-31T00:18:25;99101.13;;;6.98;62.49
28267;BME280;15525;45.568;5.448;2023-01-31T00:20:50;99096.44;;;6.51;64.38
28267;BME280;15525;45.568;5.448;2023-01-31T00:23:16;99098.53;;;6.92;63.08
28267;BME280;15525;45.568;5.448;2023-01-31T00:25:41;99086.44;;;7.14;62.50
28267;BME280;15525;45.568;5.448;2023-01-31T00:28:07;99071.59;;;6.64;63.94
28267;BME280;15525;45.568;5.448;2023-01-31T00:30:33;99082.44;;;7.05;63.00
28267;BME280;15525;45.568;5.448;2023-01-31T00:32:58;99068.59;;;6.54;64.30
28267;BME280;15525;45.568;5.448;2023-01-31T00:35:24;99083.84;;;7.25;62.23
28267;BME280;15525;45.568;5.448;2023-01-31T00:37:49;99076.16;;;7.17;62.03
28267;BME280;15525;45.568;5.448;2023-01-31T00:40:15;99064.00;;;6.43;64.21
28267;BME280;15525;45.568;5.448;2023-01-31T00:42:40;99084.22;;;7.29;62.80
28267;BME280;15525;45.568;5.448;2023-01-31T00:45:08;99081.63;;;7.22;61.83
28267;BME280;15525;45.568;5.448;2023-01-31T00:47:33;99082.06;;;6.34;65.27
28267;BME280;15525;45.568;5.448;2023-01-31T00:49:59;99064.25;;;7.20;62.67
28267;BME280;15525;45.568;5.448;2023-01-31T00:52:25;99072.22;;;7.38;62.22
28267;BME280;15525;45.568;5.448;2023-01-31T00:54:50;99073.19;;;6.89;62.32
28267;BME280;15525;45.568;5.448;2023-01-31T00:57:15;99082.56;;;6.92;63.49
28267;BME280;15525;45.568;5.448;2023-01-31T00:59:41;99073.78;;;6.91;62.71
28267;BME280;15525;45.568;5.448;2023-01-31T01:02:06;99080.38;;;7.07;62.59
28267;BME280;15525;45.568;5.448;2023-01-31T01:04:32;99078.88;;;7.11;62.76
28267;BME280;15525;45.568;5.448;2023-01-31T01:06:57;99091.31;;;7.53;61.27
28267;BME280;15525;45.568;5.448;2023-01-31T01:09:23;99096.91;;;6.91;63.57
28267;BME280;15525;45.568;5.448;2023-01-31T01:11:49;99090.03;;;6.83;63.36
28267;BME280;15525;45.568;5.448;2023-01-31T01:14:15;99099.59;;;7.09;62.82
28267;BME280;15525;45.568;5.448;2023-01-31T01:16:40;99093.28;;;6.61;63.81
28267;BME280;15525;45.568;5.448;2023-01-31T01:19:10;99101.00;;;7.11;63.25
28267;BME280;15525;45.568;5.448;2023-01-31T01:21:36;99107.88;;;6.76;63.43
28267;BME280;15525;45.568;5.448;2023-01-31T01:24:04;99101.88;;;6.87;62.94
28267;BME280;15525;45.568;5.448;2023-01-31T01:26:31;99106.47;;;6.74;63.27
28267;BME280;15525;45.568;5.448;2023-01-31T01:28:59;99116.25;;;6.80;63.60
28267;BME280;15525;45.568;5.448;2023-01-31T01:31:26;99116.47;;;7.21;62.28
28267;BME280;15525;45.568;5.448;2023-01-31T01:34:07;99116.47;;;6.78;64.08
28267;BME280;15525;45.568;5.448;2023-01-31T01:36:36;99127.75;;;6.49;64.83
28267;BME280;15525;45.568;5.448;2023-01-31T01:39:07;99131.91;;;6.14;65.40
28267;BME280;15525;45.568;5.448;2023-01-31T01:41:33;99128.75;;;6.55;64.62
28267;BME280;15525;45.568;5.448;2023-01-31T01:44:00;99128.91;;;6.60;64.18
28267;BME280;15525;45.568;5.448;2023-01-31T01:46:40;99128.69;;;6.61;64.33
28267;BME280;15525;45.568;5.448;2023-01-31T01:49:14;99134.88;;;6.55;64.50
28267;BME280;15525;45.568;5.448;2023-01-31T01:51:44;99134.03;;;7.04;63.56
28267;BME280;15525;45.568;5.448;2023-01-31T01:54:15;99150.56;;;6.88;63.69
28267;BME280;15525;45.568;5.448;2023-01-31T01:56:44;99130.81;;;6.53;64.80
28267;BME280;15525;45.568;5.448;2023-01-31T01:59:15;99138.19;;;7.00;63.37
28267;BME280;15525;45.568;5.448;2023-01-31T02:01:44;99123.16;;;6.87;63.33
28267;BME280;15525;45.568;5.448;2023-01-31T02:04:14;99132.03;;;6.99;63.09
28267;BME280;15525;45.568;5.448;2023-01-31T02:06:42;99130.03;;;6.95;62.88
28267;BME280;15525;45.568;5.448;2023-01-31T02:09:13;99125.47;;;7.20;62.56
28267;BME280;15525;45.568;5.448;2023-01-31T02:11:41;99119.56;;;7.54;61.58
28267;BME280;15525;45.568;5.448;2023-01-31T02:14:08;99118.81;;;7.11;62.49
28267;BME280;15525;45.568;5.448;2023-01-31T02:16:35;99139.16;;;7.05;62.71
28267;BME280;15525;45.568;5.448;2023-01-31T02:19:01;99125.09;;;6.25;64.95
28267;BME280;15525;45.568;5.448;2023-01-31T02:35:47;99141.84;;;6.81;63.56
28267;BME280;15525;45.568;5.448;2023-01-31T02:44:00;99157.91;;;7.35;62.01
28267;BME280;15525;45.568;5.448;2023-01-31T02:50:26;99135.78;;;6.92;63.25
28267;BME280;15525;45.568;5.448;2023-01-31T02:53:05;99148.91;;;7.11;62.82
28267;BME280;15525;45.568;5.448;2023-01-31T02:59:06;99155.50;;;6.60;64.12
28267;BME280;15525;45.568;5.448;2023-01-31T03:01:35;99151.88;;;7.21;61.86
28267;BME280;15525;45.568;5.448;2023-01-31T03:04:05;99152.19;;;7.67;60.74
28267;BME280;15525;45.568;5.448;2023-01-31T03:09:17;99161.28;;;7.42;60.89
28267;BME280;15525;45.568;5.448;2023-01-31T03:14:28;99162.06;;;6.82;63.45
28267;BME280;15525;45.568;5.448;2023-01-31T03:17:09;99167.81;;;7.46;61.51
28267;BME280;15525;45.568;5.448;2023-01-31T03:20:10;99169.06;;;7.61;61.15
28267;BME280;15525;45.568;5.448;2023-01-31T03:22:43;99182.25;;;7.56;61.01
28267;BME280;15525;45.568;5.448;2023-01-31T03:25:13;99182.50;;;7.30;61.58
28267;BME280;15525;45.568;5.448;2023-01-31T03:27:45;99174.75;;;7.29;62.09
28267;BME280;15525;45.568;5.448;2023-01-31T03:30:18;99185.53;;;7.16;62.28
28267;BME280;15525;45.568;5.448;2023-01-31T03:32:51;99188.53;;;7.01;62.61
28267;BME280;15525;45.568;5.448;2023-01-31T03:35:20;99190.81;;;7.40;61.06
28267;BME280;15525;45.568;5.448;2023-01-31T03:38:03;99181.28;;;7.51;60.82
28267;BME280;15525;45.568;5.448;2023-01-31T03:40:40;99180.47;;;7.68;60.57
28267;BME280;15525;45.568;5.448;2023-01-31T03:45:45;99187.47;;;7.27;61.02
28267;BME280;15525;45.568;5.448;2023-01-31T03:48:14;99189.97;;;7.22;61.55
28267;BME280;15525;45.568;5.448;2023-01-31T03:50:52;99200.59;;;7.46;61.27
28267;BME280;15525;45.568;5.448;2023-01-31T03:53:25;99210.41;;;6.48;63.59
28267;BME280;15525;45.568;5.448;2023-01-31T03:56:00;99200.16;;;7.07;62.40
28267;BME280;15525;45.568;5.448;2023-01-31T03:58:32;99209.22;;;7.42;61.32
28267;BME280;15525;45.568;5.448;2023-01-31T04:01:01;99212.53;;;7.19;61.24
28267;BME280;15525;45.568;5.448;2023-01-31T04:03:41;99209.88;;;7.19;62.27
28267;BME280;15525;45.568;5.448;2023-01-31T04:06:09;99207.94;;;6.84;63.02
28267;BME280;15525;45.568;5.448;2023-01-31T04:08:35;99206.00;;;6.66;63.48
28267;BME280;15525;45.568;5.448;2023-01-31T04:11:08;99209.09;;;6.88;62.80
28267;BME280;15525;45.568;5.448;2023-01-31T04:13:34;99211.75;;;6.88;62.97
28267;BME280;15525;45.568;5.448;2023-01-31T04:15:59;99208.09;;;6.58;63.65
28267;BME280;15525;45.568;5.448;2023-01-31T04:18:25;99205.56;;;6.69;63.25
28267;BME280;15525;45.568;5.448;2023-01-31T04:20:50;99219.00;;;6.81;63.58
28267;BME280;15525;45.568;5.448;2023-01-31T04:23:16;99227.25;;;6.97;62.77
28267;BME280;15525;45.568;5.448;2023-01-31T04:25:43;99224.06;;;6.20;65.02
28267;BME280;15525;45.568;5.448;2023-01-31T04:28:08;99219.38;;;7.09;62.92
28267;BME280;15525;45.568;5.448;2023-01-31T04:30:34;99223.38;;;7.42;61.23
28267;BME280;15525;45.568;5.448;2023-01-31T04:32:59;99221.09;;;6.72;63.80
28267;BME280;15525;45.568;5.448;2023-01-31T04:35:25;99225.94;;;6.82;63.83
28267;BME280;15525;45.568;5.448;2023-01-31T04:37:50;99219.91;;;7.17;62.40
28267;BME280;15525;45.568;5.448;2023-01-31T04:40:16;99216.13;;;7.07;62.40
28267;BME280;15525;45.568;5.448;2023-01-31T04:42:41;99228.44;;;7.26;62.41
28267;BME280;15525;45.568;5.448;2023-01-31T04:45:07;99227.47;;;6.96;62.77
28267;BME280;15525;45.568;5.448;2023-01-31T04:47:33;99232.97;;;6.70;63.10
28267;BME280;15525;45.568;5.448;2023-01-31T04:49:58;99227.50;;;6.89;62.82
28267;BME280;15525;45.568;5.448;2023-01-31T04:52:23;99235.44;;;7.20;62.52
28267;BME280;15525;45.568;5.448;2023-01-31T04:54:49;99239.75;;;7.21;61.93
28267;BME280;15525;45.568;5.448;2023-01-31T04:57:14;99238.94;;;7.21;62.50
28267;BME280;15525;45.568;5.448;2023-01-31T04:59:40;99240.97;;;6.94;62.71
28267;BME280;15525;45.568;5.448;2023-01-31T05:02:05;99245.25;;;6.71;63.48
28267;BME280;15525;45.568;5.448;2023-01-31T05:04:31;99242.84;;;7.18;61.99
28267;BME280;15525;45.568;5.448;2023-01-31T05:06:56;99255.13;;;7.44;61.48
28267;BME280;15525;45.568;5.448;2023-01-31T05:09:22;99251.69;;;7.12;62.42
28267;BME280;15525;45.568;5.448;2023-01-31T05:11:49;99240.50;;;7.28;61.51
28267;BME280;15525;45.568;5.448;2023-01-31T05:14:15;99242.75;;;7.07;62.52
28267;BME280;15525;45.568;5.448;2023-01-31T05:16:40;99246.38;;;6.81;62.99
28267;BME280;15525;45.568;5.448;2023-01-31T05:19:09;99244.38;;;7.32;61.98
28267;BME280;15525;45.568;5.448;2023-01-31T05:21:35;99234.00;;;6.69;63.73
28267;BME280;15525;45.568;5.448;2023-01-31T05:24:21;99254.00;;;6.78;63.53
28267;BME280;15525;45.568;5.448;2023-01-31T05:26:47;99249.88;;;6.82;63.58
28267;BME280;15525;45.568;5.448;2023-01-31T05:29:15;99259.31;;;6.78;63.76
28267;BME280;15525;45.568;5.448;2023-01-31T05:31:40;99254.03;;;6.40;64.39
28267;BME280;15525;45.568;5.448;2023-01-31T05:34:05;99260.41;;;7.01;62.81
28267;BME280;15525;45.568;5.448;2023-01-31T05:36:31;99252.78;;;7.05;62.83
28267;BME280;15525;45.568;5.448;2023-01-31T05:38:56;99251.09;;;6.86;63.03
28267;BME280;15525;45.568;5.448;2023-01-31T05:41:22;99267.47;;;6.83;62.67
28267;BME280;15525;45.568;5.448;2023-01-31T05:43:47;99266.72;;;7.07;62.54
28267;BME280;15525;45.568;5.448;2023-01-31T05:46:13;99270.84;;;7.45;61.49
28267;BME280;15525;45.568;5.448;2023-01-31T05:48:38;99271.09;;;7.68;60.29
28267;BME280;15525;45.568;5.448;2023-01-31T05:51:04;99274.50;;;7.93;60.46
28267;BME280;15525;45.568;5.448;2023-01-31T05:53:29;99272.38;;;7.77;60.83
28267;BME280;15525;45.568;5.448;2023-01-31T05:55:55;99274.41;;;7.15;62.40
28267;BME280;15525;45.568;5.448;2023-01-31T05:58:20;99273.63;;;7.57;61.37
28267;BME280;15525;45.568;5.448;2023-01-31T06:00:46;99270.78;;;7.76;60.06
28267;BME280;15525;45.568;5.448;2023-01-31T06:03:11;99273.41;;;7.58;60.96
28267;BME280;15525;45.568;5.448;2023-01-31T06:05:36;99281.66;;;7.75;60.19
28267;BME280;15525;45.568;5.448;2023-01-31T06:08:04;99290.69;;;7.92;60.30
28267;BME280;15525;45.568;5.448;2023-01-31T06:10:30;99286.94;;;6.83;63.04
28267;BME280;15525;45.568;5.448;2023-01-31T06:12:55;99303.72;;;6.84;62.67
28267;BME280;15525;45.568;5.448;2023-01-31T06:15:20;99298.91;;;6.99;62.74
28267;BME280;15525;45.568;5.448;2023-01-31T06:17:46;99291.91;;;7.29;61.94
28267;BME280;15525;45.568;5.448;2023-01-31T06:20:11;99298.00;;;7.36;61.77
28267;BME280;15525;45.568;5.448;2023-01-31T06:22:37;99298.94;;;7.48;61.07
28267;BME280;15525;45.568;5.448;2023-01-31T06:25:02;99296.03;;;7.25;61.70
28267;BME280;15525;45.568;5.448;2023-01-31T06:27:31;99284.09;;;6.78;62.64
28267;BME280;15525;45.568;5.448;2023-01-31T06:29:57;99303.91;;;7.38;61.11
28267;BME280;15525;45.568;5.448;2023-01-31T06:32:22;99311.09;;;7.62;60.79
28267;BME280;15525;45.568;5.448;2023-01-31T06:34:47;99317.47;;;7.79;60.50
28267;BME280;15525;45.568;5.448;2023-01-31T06:37:13;99304.53;;;7.40;61.58
28267;BME280;15525;45.568;5.448;2023-01-31T06:39:38;99322.34;;;7.64;60.37
28267;BME280;15525;45.568;5.448;2023-01-31T06:42:04;99326.78;;;7.70;60.35
28267;BME280;15525;45.568;5.448;2023-01-31T06:44:30;99322.09;;;7.90;59.68
28267;BME280;15525;45.568;5.448;2023-01-31T06:46:58;99317.28;;;7.98;58.95
28267;BME280;15525;45.568;5.448;2023-01-31T06:49:23;99328.75;;;7.81;59.92
28267;BME280;15525;45.568;5.448;2023-01-31T06:51:48;99326.22;;;7.43;60.34
28267;BME280;15525;45.568;5.448;2023-01-31T06:54:14;99323.84;;;6.67;62.65
28267;BME280;15525;45.568;5.448;2023-01-31T06:56:39;99341.03;;;6.71;62.66
28267;BME280;15525;45.568;5.448;2023-01-31T06:59:05;99340.41;;;6.25;64.26
28267;BME280;15525;45.568;5.448;2023-01-31T07:01:30;99332.50;;;6.49;63.60
28267;BME280;15525;45.568;5.448;2023-01-31T07:03:55;99336.03;;;6.87;62.65
28267;BME280;15525;45.568;5.448;2023-01-31T07:06:21;99338.09;;;6.79;62.43
28267;BME280;15525;45.568;5.448;2023-01-31T07:08:47;99338.69;;;7.18;61.51
28267;BME280;15525;45.568;5.448;2023-01-31T07:11:12;99339.88;;;6.98;61.50
28267;BME280;15525;45.568;5.448;2023-01-31T07:13:38;99336.22;;;7.23;60.86
28267;BME280;15525;45.568;5.448;2023-01-31T07:16:04;99347.59;;;6.68;62.45
28267;BME280;15525;45.568;5.448;2023-01-31T07:18:29;99355.44;;;6.50;63.21
28267;BME280;15525;45.568;5.448;2023-01-31T07:20:54;99355.59;;;6.99;61.75
28267;BME280;15525;45.568;5.448;2023-01-31T07:23:20;99354.00;;;6.92;61.35
28267;BME280;15525;45.568;5.448;2023-01-31T07:25:45;99368.09;;;6.99;61.26
28267;BME280;15525;45.568;5.448;2023-01-31T07:28:11;99360.03;;;7.12;61.27
28267;BME280;15525;45.568;5.448;2023-01-31T07:30:36;99365.84;;;7.58;59.89
28267;BME280;15525;45.568;5.448;2023-01-31T07:33:02;99367.31;;;7.78;59.40
28267;BME280;15525;45.568;5.448;2023-01-31T07:35:27;99360.41;;;7.71;59.18
28267;BME280;15525;45.568;5.448;2023-01-31T07:37:53;99385.09;;;6.98;60.89
28267;BME280;15525;45.568;5.448;2023-01-31T07:40:19;99386.53;;;7.31;60.09
28267;BME280;15525;45.568;5.448;2023-01-31T07:42:44;99371.69;;;7.11;61.44
28267;BME280;15525;45.568;5.448;2023-01-31T07:45:11;99380.88;;;7.15;60.65
28267;BME280;15525;45.568;5.448;2023-01-31T07:47:37;99380.31;;;7.44;59.86
28267;BME280;15525;45.568;5.448;2023-01-31T07:50:03;99379.44;;;7.50;59.51
28267;BME280;15525;45.568;5.448;2023-01-31T07:52:30;99374.69;;;7.76;58.50
28267;BME280;15525;45.568;5.448;2023-01-31T07:54:55;99379.00;;;7.53;58.90
28267;BME280;15525;45.568;5.448;2023-01-31T07:57:21;99369.09;;;7.60;58.58
28267;BME280;15525;45.568;5.448;2023-01-31T07:59:46;99376.13;;;7.79;58.25
28267;BME280;15525;45.568;5.448;2023-01-31T08:02:13;99370.09;;;7.90;57.39
28267;BME280;15525;45.568;5.448;2023-01-31T08:04:58;99376.25;;;8.08;57.63
28267;BME280;15525;45.568;5.448;2023-01-31T08:07:25;99376.09;;;8.03;57.36
28267;BME280;15525;45.568;5.448;2023-01-31T08:09:51;99376.06;;;7.85;57.94
28267;BME280;15525;45.568;5.448;2023-01-31T08:12:16;99384.41;;;7.89;57.78
28267;BME280;15525;45.568;5.448;2023-01-31T08:14:42;99373.22;;;8.05;56.79
28267;BME280;15525;45.568;5.448;2023-01-31T08:17:08;99386.81;;;7.97;56.99
28267;BME280;15525;45.568;5.448;2023-01-31T08:19:34;99390.78;;;7.88;57.89
28267;BME280;15525;45.568;5.448;2023-01-31T08:22:00;99384.22;;;7.66;58.37
28267;BME280;15525;45.568;5.448;2023-01-31T08:24:26;99385.88;;;7.36;58.79
28267;BME280;15525;45.568;5.448;2023-01-31T08:26:51;99398.94;;;7.44;58.92
28267;BME280;15525;45.568;5.448;2023-01-31T08:29:17;99401.31;;;7.52;58.30
28267;BME280;15525;45.568;5.448;2023-01-31T08:31:43;99410.19;;;7.46;58.94
28267;BME280;15525;45.568;5.448;2023-01-31T08:34:08;99419.31;;;7.32;59.11
28267;BME280;15525;45.568;5.448;2023-01-31T08:36:34;99418.59;;;7.74;58.60
28267;BME280;15525;45.568;5.448;2023-01-31T08:39:01;99411.22;;;7.76;58.54
28267;BME280;15525;45.568;5.448;2023-01-31T08:41:27;99428.84;;;8.26;58.01
28267;BME280;15525;45.568;5.448;2023-01-31T08:43:54;99411.50;;;8.53;57.39
28267;BME280;15525;45.568;5.448;2023-01-31T08:46:20;99430.56;;;8.56;56.20
28267;BME280;15525;45.568;5.448;2023-01-31T08:48:45;99441.28;;;9.22;55.39
28267;BME280;15525;45.568;5.448;2023-01-31T08:51:12;99426.47;;;9.08;54.94
28267;BME280;15525;45.568;5.448;2023-01-31T08:53:39;99441.38;;;9.45;53.80
28267;BME280;15525;45.568;5.448;2023-01-31T08:56:06;99440.00;;;8.59;55.88
28267;BME280;15525;45.568;5.448;2023-01-31T08:58:33;99431.34;;;8.39;56.32
28267;BME280;15525;45.568;5.448;2023-01-31T09:01:01;99437.84;;;8.25;57.16
28267;BME280;15525;45.568;5.448;2023-01-31T09:03:27;99432.09;;;8.03;58.79
28267;BME280;15525;45.568;5.448;2023-01-31T09:05:52;99430.25;;;9.30;56.46
28267;BME280;15525;45.568;5.448;2023-01-31T09:08:17;99437.16;;;8.54;55.80
28267;BME280;15525;45.568;5.448;2023-01-31T09:10:49;99440.91;;;9.48;54.78
28267;BME280;15525;45.568;5.448;2023-01-31T09:13:15;99455.75;;;9.85;52.97
28267;BME280;15525;45.568;5.448;2023-01-31T09:15:41;99440.22;;;9.93;52.66
28267;BME280;15525;45.568;5.448;2023-01-31T09:18:06;99439.09;;;10.24;52.03
28267;BME280;15525;45.568;5.448;2023-01-31T09:20:31;99455.47;;;9.34;53.45
28267;BME280;15525;45.568;5.448;2023-01-31T09:22:57;99435.72;;;10.17;52.46
28267;BME280;15525;45.568;5.448;2023-01-31T09:25:22;99450.75;;;10.52;51.89
28267;BME280;15525;45.568;5.448;2023-01-31T09:27:51;99437.94;;;11.33;51.31
28267;BME280;15525;45.568;5.448;2023-01-31T09:30:16;99455.97;;;10.59;50.99
28267;BME280;15525;45.568;5.448;2023-01-31T09:32:42;99456.88;;;10.53;51.72
28267;BME280;15525;45.568;5.448;2023-01-31T09:35:08;99475.78;;;9.53;53.98
28267;BME280;15525;45.568;5.448;2023-01-31T09:37:34;99456.88;;;10.76;52.08
28267;BME280;15525;45.568;5.448;2023-01-31T09:39:59;99450.75;;;10.29;52.34
28267;BME280;15525;45.568;5.448;2023-01-31T09:42:30;99455.56;;;10.90;51.24
28267;BME280;15525;45.568;5.448;2023-01-31T09:45:05;99461.34;;;10.59;51.96
28267;BME280;15525;45.568;5.448;2023-01-31T09:47:44;99452.69;;;10.11;52.90
28267;BME280;15525;45.568;5.448;2023-01-31T09:50:55;99456.56;;;10.49;51.09
28267;BME280;15525;45.568;5.448;2023-01-31T09:53:22;99455.97;;;10.59;49.79
28267;BME280;15525;45.568;5.448;2023-01-31T10:01:17;99463.50;;;10.73;49.28
28267;BME280;15525;45.568;5.448;2023-01-31T10:04:13;99466.06;;;11.87;47.61
28267;BME280;15525;45.568;5.448;2023-01-31T10:06:47;99461.56;;;11.48;47.20
28267;BME280;15525;45.568;5.448;2023-01-31T10:10:04;99465.09;;;11.93;47.76
28267;BME280;15525;45.568;5.448;2023-01-31T10:14:36;99454.66;;;12.63;46.50
28267;BME280;15525;45.568;5.448;2023-01-31T10:19:42;99455.91;;;12.22;46.41
28267;BME280;15525;45.568;5.448;2023-01-31T10:22:12;99444.38;;;11.60;47.56
28267;BME280;15525;45.568;5.448;2023-01-31T10:24:48;99437.91;;;12.39;46.75
28267;BME280;15525;45.568;5.448;2023-01-31T10:27:37;99453.78;;;12.79;45.64
28267;BME280;15525;45.568;5.448;2023-01-31T10:30:13;99449.81;;;13.03;44.73
28267;BME280;15525;45.568;5.448;2023-01-31T10:32:42;99444.66;;;12.80;46.45
28267;BME280;15525;45.568;5.448;2023-01-31T10:35:18;99438.25;;;11.93;47.29
28267;BME280;15525;45.568;5.448;2023-01-31T10:37:49;99441.22;;;12.46;46.56
28267;BME280;15525;45.568;5.448;2023-01-31T10:40:20;99433.00;;;12.53;45.93
28267;BME280;15525;45.568;5.448;2023-01-31T10:42:53;99436.75;;;13.33;45.05
28267;BME280;15525;45.568;5.448;2023-01-31T10:45:24;99436.22;;;13.57;44.52
28267;BME280;15525;45.568;5.448;2023-01-31T10:53:28;99431.22;;;13.71;43.68
28267;BME280;15525;45.568;5.448;2023-01-31T10:56:05;99419.56;;;13.12;45.33
28267;BME280;15525;45.568;5.448;2023-01-31T10:58:31;99425.91;;;12.63;45.90
28267;BME280;15525;45.568;5.448;2023-01-31T11:00:57;99420.81;;;13.26;44.55
28267;BME280;15525;45.568;5.448;2023-01-31T11:03:24;99407.16;;;13.33;45.52
28267;BME280;15525;45.568;5.448;2023-01-31T11:05:52;99415.88;;;13.18;45.95
28267;BME280;15525;45.568;5.448;2023-01-31T11:09:00;99404.91;;;12.98;45.27
28267;BME280;15525;45.568;5.448;2023-01-31T11:11:21;99408.63;;;13.45;45.00
28267;BME280;15525;45.568;5.448;2023-01-31T11:14:16;99404.56;;;13.16;43.25
28267;BME280;15525;45.568;5.448;2023-01-31T11:16:42;99394.31;;;13.13;43.83
28267;BME280;15525;45.568;5.448;2023-01-31T11:19:17;99403.59;;;13.54;41.81
28267;BME280;15525;45.568;5.448;2023-01-31T11:21:48;99377.59;;;14.27;41.40
28267;BME280;15525;45.568;5.448;2023-01-31T11:24:24;99385.81;;;14.16;40.76
28267;BME280;15525;45.568;5.448;2023-01-31T11:27:06;99374.41;;;13.67;39.62
28267;BME280;15525;45.568;5.448;2023-01-31T11:29:37;99349.34;;;13.93;41.83
28267;BME280;15525;45.568;5.448;2023-01-31T11:32:31;99369.00;;;13.62;42.29
28267;BME280;15525;45.568;5.448;2023-01-31T11:34:58;99360.72;;;12.94;42.28
28267;BME280;15525;45.568;5.448;2023-01-31T11:37:25;99350.50;;;12.48;43.92
28267;BME280;15525;45.568;5.448;2023-01-31T11:40:02;99353.38;;;13.06;42.98
28267;BME280;15525;45.568;5.448;2023-01-31T11:42:28;99336.25;;;12.69;42.43
28267;BME280;15525;45.568;5.448;2023-01-31T11:44:58;99335.50;;;12.31;44.56
28267;BME280;15525;45.568;5.448;2023-01-31T11:47:37;99326.97;;;13.56;42.92
28267;BME280;15525;45.568;5.448;2023-01-31T11:50:04;99321.97;;;12.64;42.73
28267;BME280;15525;45.568;5.448;2023-01-31T11:52:32;99311.88;;;13.55;41.02
28267;BME280;15525;45.568;5.448;2023-01-31T11:55:05;99326.31;;;12.70;41.84
28267;BME280;15525;45.568;5.448;2023-01-31T11:57:34;99312.38;;;13.21;40.41
28267;BME280;15525;45.568;5.448;2023-01-31T12:00:04;99307.41;;;12.17;43.26
28267;BME280;15525;45.568;5.448;2023-01-31T12:02:36;99305.84;;;13.38;41.00
28267;BME280;15525;45.568;5.448;2023-01-31T12:05:08;99292.56;;;14.51;39.60
28267;BME280;15525;45.568;5.448;2023-01-31T12:07:47;99292.66;;;14.15;39.09
28267;BME280;15525;45.568;5.448;2023-01-31T12:12:59;99288.72;;;14.27;39.56
28267;BME280;15525;45.568;5.448;2023-01-31T12:15:27;99289.97;;;14.66;37.32
28267;BME280;15525;45.568;5.448;2023-01-31T12:17:53;99273.19;;;14.54;39.39
28267;BME280;15525;45.568;5.448;2023-01-31T12:20:25;99265.41;;;14.68;38.29
28267;BME280;15525;45.568;5.448;2023-01-31T12:23:06;99261.59;;;14.54;38.32
28267;BME280;15525;45.568;5.448;2023-01-31T12:25:43;99261.69;;;14.79;36.13
28267;BME280;15525;45.568;5.448;2023-01-31T12:37:02;99257.09;;;14.79;37.36
28267;BME280;15525;45.568;5.448;2023-01-31T12:42:27;99260.13;;;13.38;39.47
28267;BME280;15525;45.568;5.448;2023-01-31T12:47:50;99256.69;;;13.84;37.93
28267;BME280;15525;45.568;5.448;2023-01-31T12:50:38;99261.63;;;14.02;38.89
28267;BME280;15525;45.568;5.448;2023-01-31T12:55:41;99242.91;;;15.44;37.78
28267;BME280;15525;45.568;5.448;2023-01-31T12:58:37;99242.31;;;15.07;37.46
28267;BME280;15525;45.568;5.448;2023-01-31T13:01:16;99253.97;;;15.62;36.07
28267;BME280;15525;45.568;5.448;2023-01-31T13:06:44;99246.25;;;14.59;39.25
28267;BME280;15525;45.568;5.448;2023-01-31T13:09:37;99235.84;;;15.18;37.02
28267;BME280;15525;45.568;5.448;2023-01-31T13:12:15;99244.44;;;15.00;36.73
28267;BME280;15525;45.568;5.448;2023-01-31T13:14:49;99244.50;;;15.15;38.18
28267;BME280;15525;45.568;5.448;2023-01-31T13:17:23;99228.31;;;15.25;37.81
28267;BME280;15525;45.568;5.448;2023-01-31T13:20:07;99239.88;;;15.15;37.86
28267;BME280;15525;45.568;5.448;2023-01-31T13:22:46;99229.38;;;15.64;37.76
28267;BME280;15525;45.568;5.448;2023-01-31T13:25:41;99226.72;;;15.34;37.71
28267;BME280;15525;45.568;5.448;2023-01-31T13:28:32;99233.50;;;14.35;39.56
28267;BME280;15525;45.568;5.448;2023-01-31T13:31:05;99235.25;;;14.81;39.78
28267;BME280;15525;45.568;5.448;2023-01-31T13:33:40;99235.06;;;15.07;38.62
28267;BME280;15525;45.568;5.448;2023-01-31T13:36:31;99218.56;;;14.99;39.17
28267;BME280;15525;45.568;5.448;2023-01-31T13:39:00;99224.75;;;14.08;40.82
28267;BME280;15525;45.568;5.448;2023-01-31T13:41:27;99219.34;;;14.79;39.32
28267;BME280;15525;45.568;5.448;2023-01-31T13:43:55;99221.00;;;14.80;39.33
28267;BME280;15525;45.568;5.448;2023-01-31T13:46:26;99204.81;;;15.20;39.22
28267;BME280;15525;45.568;5.448;2023-01-31T13:49:01;99209.69;;;15.28;38.85
28267;BME280;15525;45.568;5.448;2023-01-31T13:56:38;99191.31;;;15.25;39.66
28267;BME280;15525;45.568;5.448;2023-01-31T13:59:09;99191.59;;;14.79;39.99
28267;BME280;15525;45.568;5.448;2023-01-31T14:02:03;99190.75;;;14.48;39.47
28267;BME280;15525;45.568;5.448;2023-01-31T14:04:36;99189.41;;;14.56;40.53
28267;BME280;15525;45.568;5.448;2023-01-31T14:09:38;99191.59;;;14.64;40.64
28267;BME280;15525;45.568;5.448;2023-01-31T14:20:06;99175.59;;;14.32;38.93
28267;BME280;15525;45.568;5.448;2023-01-31T14:23:27;99174.28;;;14.50;39.26
28267;BME280;15525;45.568;5.448;2023-01-31T14:25:53;99179.69;;;15.80;37.30
28267;BME280;15525;45.568;5.448;2023-01-31T14:28:19;99176.09;;;15.99;37.12
28267;BME280;15525;45.568;5.448;2023-01-31T14:30:46;99177.69;;;16.05;37.41
28267;BME280;15525;45.568;5.448;2023-01-31T14:44:10;99190.34;;;14.20;39.09
28267;BME280;15525;45.568;5.448;2023-01-31T14:49:28;99197.75;;;13.88;40.43
28267;BME280;15525;45.568;5.448;2023-01-31T14:57:50;99208.28;;;13.99;39.49
28267;BME280;15525;45.568;5.448;2023-01-31T15:00:34;99199.72;;;14.07;39.79
28267;BME280;15525;45.568;5.448;2023-01-31T15:03:15;99200.19;;;14.66;38.72
28267;BME280;15525;45.568;5.448;2023-01-31T15:05:49;99198.34;;;14.76;39.50
28267;BME280;15525;45.568;5.448;2023-01-31T15:16:31;99204.63;;;13.64;40.09
28267;BME280;15525;45.568;5.448;2023-01-31T15:19:19;99202.88;;;13.89;40.04
28267;BME280;15525;45.568;5.448;2023-01-31T15:21:53;99202.81;;;14.36;39.60